Flight Track Log - Related Links

Times and Time Zones

All times are in EDT time to prevent confusion due to time zone crossing. See the CES2231 flight status page for this flight to view local times or setup timezone preferences in your user account.

Time Position Orientation Groundspeed Altitude Reporting Facility
EDT Latitude Longitude Course Direction KTS MPH feet Rate Location/Type
Sat 06:53:00 AM 33.9488 107.0696 251° West  Level Estimated
Sat 06:54:00 AM 33.9220 106.9817 250° West  Level Estimated
Sat 06:55:00 AM 33.8951 106.8937 250° West  Level Estimated
Sat 06:56:00 AM 33.8681 106.8059 250° West  Level Estimated
Sat 06:57:00 AM 33.8410 106.7181 250° West  Level Estimated
Sat 06:58:00 AM 33.8139 106.6303 250° West  Level Estimated
Sat 06:59:00 AM 33.7868 106.5426 250° West  Level Estimated
Sat 07:00:00 AM 33.7595 106.4550 250° West  Level Estimated
Sat 07:01:00 AM 33.7322 106.3674 249° West  Level Estimated
Sat 07:02:00 AM 33.7049 106.2799 249° West  Level Estimated
Sat 07:03:00 AM 33.6775 106.1924 249° West  Level Estimated
Sat 07:04:00 AM 33.6500 106.1050 249° West  Level Estimated
Sat 07:05:00 AM 33.6225 106.0176 249° West  Level Estimated
Sat 07:06:00 AM 33.5948 105.9303 249° West  Level Estimated
Sat 07:07:00 AM 33.5672 105.8431 249° West  Level Estimated
Sat 07:08:00 AM 33.5395 105.7559 249° West  Level Estimated
Sat 07:09:00 AM 33.5117 105.6687 249° West  Level Estimated
Sat 07:10:00 AM 33.4838 105.5817 249° West  Level Estimated
Sat 07:11:00 AM 33.4559 105.4947 249° West  Level Estimated
Sat 07:12:00 AM 33.4280 105.4077 249° West  Level Estimated
Sat 07:13:00 AM 33.3999 105.3208 249° West  Level Estimated
Sat 07:14:00 AM 33.3718 105.2339 249° West  Level Estimated
Sat 07:15:00 AM 33.3437 105.1471 249° West  Level Estimated
Sat 07:16:00 AM 33.3155 105.0604 249° West  Level Estimated
Sat 07:17:00 AM 33.2872 104.9737 249° West  Level Estimated
Sat 07:18:00 AM 33.2589 104.8870 249° West  Level Estimated
Sat 07:19:00 AM 33.2305 104.8005 249° West  Level Estimated
Sat 07:20:00 AM 33.2020 104.7140 249° West  Level Estimated
Sat 07:21:00 AM 33.1735 104.6275 249° West  Level Estimated
Sat 07:22:00 AM 33.1450 104.5411 248° West  Level Estimated
Sat 07:23:00 AM 33.1163 104.4547 248° West  Level Estimated
Sat 07:24:00 AM 33.0876 104.3684 248° West  Level Estimated
Sat 07:25:00 AM 33.0589 104.2822 248° West  Level Estimated
Sat 07:26:00 AM 33.0301 104.1960 248° West  Level Estimated
Sat 07:27:00 AM 33.0012 104.1099 248° West  Level Estimated
Sat 07:28:00 AM 32.9683 104.0120 248° West  Level Estimated
Sat 07:29:00 AM 32.9354 103.9142 248° West  Level Estimated
Sat 07:30:00 AM 32.9023 103.8165 248° West  Level Estimated
Sat 07:31:00 AM 32.8692 103.7188 248° West  Level Estimated
Sat 07:32:00 AM 32.8570 103.6830 248° West  Level Estimated
Sat 07:33:00 AM 32.8570 103.6830 North  Level Estimated
Sat 07:34:00 AM 32.8570 103.6830 North  Level Estimated
Sat 07:35:00 AM 32.8570 103.6830 North  Level Estimated
Sat 07:36:00 AM 32.8570 103.6830 North  Level Estimated
Sat 07:37:00 AM 32.8570 103.6830 North  Level Estimated
Sat 07:38:00 AM 32.8570 103.6830 North  Level Estimated
Sat 07:39:00 AM 32.8570 103.6830 North  Level Estimated
Sat 07:40:00 AM 32.8570 103.6830 North  Level Estimated
Sat 07:41:00 AM 32.8570 103.6830 North  Level Estimated

Login

Don't have an account? Register now (free) for customized features, flight alerts, and more!